sensor_id;sensor_type;location;lat;lon;timestamp;pressure;altitude;pressure_sealevel;temperature;humidity
60832;BME280;46665;51.558;-0.448;2023-01-28T00:01:46;102613.78;;;0.18;100.00
60832;BME280;46665;51.558;-0.448;2023-01-28T00:04:30;102599.72;;;0.08;100.00
60832;BME280;46665;51.558;-0.448;2023-01-28T00:07:14;102610.09;;;0.19;100.00
60832;BME280;46665;51.558;-0.448;2023-01-28T00:09:58;102600.69;;;0.07;100.00
60832;BME280;46665;51.558;-0.448;2023-01-28T00:12:43;102603.56;;;0.06;100.00
60832;BME280;46665;51.558;-0.448;2023-01-28T00:15:30;102593.81;;;-0.04;100.00
60832;BME280;46665;51.558;-0.448;2023-01-28T00:18:12;102591.63;;;-0.08;100.00
60832;BME280;46665;51.558;-0.448;2023-01-28T00:21:04;102626.97;;;0.04;100.00
60832;BME280;46665;51.558;-0.448;2023-01-28T00:23:52;102598.47;;;-0.14;100.00
60832;BME280;46665;51.558;-0.448;2023-01-28T00:26:37;102590.94;;;-0.18;100.00
60832;BME280;46665;51.558;-0.448;2023-01-28T00:29:22;102632.66;;;0.01;100.00
60832;BME280;46665;51.558;-0.448;2023-01-28T00:32:06;102610.91;;;-0.05;100.00
60832;BME280;46665;51.558;-0.448;2023-01-28T00:34:53;102597.78;;;-0.16;100.00
60832;BME280;46665;51.558;-0.448;2023-01-28T00:37:37;102607.22;;;-0.04;100.00
60832;BME280;46665;51.558;-0.448;2023-01-28T00:40:22;102626.84;;;0.13;100.00
60832;BME280;46665;51.558;-0.448;2023-01-28T00:43:06;102613.78;;;0.18;100.00
60832;BME280;46665;51.558;-0.448;2023-01-28T00:45:50;102624.66;;;0.25;100.00
60832;BME280;46665;51.558;-0.448;2023-01-28T00:48:34;102610.44;;;0.25;100.00
60832;BME280;46665;51.558;-0.448;2023-01-28T00:51:19;102601.25;;;0.27;100.00
60832;BME280;46665;51.558;-0.448;2023-01-28T00:54:03;102610.63;;;0.31;100.00
60832;BME280;46665;51.558;-0.448;2023-01-28T00:56:48;102597.75;;;0.35;100.00
60832;BME280;46665;51.558;-0.448;2023-01-28T00:59:31;102596.25;;;0.40;100.00
60832;BME280;46665;51.558;-0.448;2023-01-28T01:02:15;102609.47;;;0.50;100.00
60832;BME280;46665;51.558;-0.448;2023-01-28T01:05:00;102616.88;;;0.56;100.00
60832;BME280;46665;51.558;-0.448;2023-01-28T01:07:44;102616.88;;;0.56;100.00
60832;BME280;46665;51.558;-0.448;2023-01-28T01:10:28;102605.81;;;0.59;100.00
60832;BME280;46665;51.558;-0.448;2023-01-28T01:13:12;102618.72;;;0.64;100.00
60832;BME280;46665;51.558;-0.448;2023-01-28T01:16:15;102619.38;;;0.66;100.00
60832;BME280;46665;51.558;-0.448;2023-01-28T01:19:02;102617.19;;;0.70;100.00
60832;BME280;46665;51.558;-0.448;2023-01-28T01:21:46;102614.38;;;0.71;100.00
60832;BME280;46665;51.558;-0.448;2023-01-28T01:24:33;102616.88;;;0.73;100.00
60832;BME280;46665;51.558;-0.448;2023-01-28T01:27:17;102616.69;;;0.74;100.00
60832;BME280;46665;51.558;-0.448;2023-01-28T01:30:01;102611.00;;;0.77;100.00
60832;BME280;46665;51.558;-0.448;2023-01-28T01:32:45;102618.53;;;0.82;100.00
60832;BME280;46665;51.558;-0.448;2023-01-28T01:35:29;102615.19;;;0.80;100.00
60832;BME280;46665;51.558;-0.448;2023-01-28T01:38:13;102603.44;;;0.81;100.00
60832;BME280;46665;51.558;-0.448;2023-01-28T01:40:59;102604.63;;;0.78;100.00
60832;BME280;46665;51.558;-0.448;2023-01-28T01:43:58;102597.59;;;0.77;100.00
60832;BME280;46665;51.558;-0.448;2023-01-28T01:46:48;102605.16;;;0.82;100.00
60832;BME280;46665;51.558;-0.448;2023-01-28T01:49:33;102605.63;;;0.85;100.00
60832;BME280;46665;51.558;-0.448;2023-01-28T01:52:23;102604.81;;;0.85;100.00
60832;BME280;46665;51.558;-0.448;2023-01-28T01:55:13;102601.28;;;0.93;100.00
60832;BME280;46665;51.558;-0.448;2023-01-28T01:58:04;102604.63;;;0.95;100.00
60832;BME280;46665;51.558;-0.448;2023-01-28T02:00:50;102604.47;;;0.96;100.00
60832;BME280;46665;51.558;-0.448;2023-01-28T02:06:44;102609.66;;;0.98;100.00
60832;BME280;46665;51.558;-0.448;2023-01-28T02:09:31;102608.47;;;1.00;100.00
60832;BME280;46665;51.558;-0.448;2023-01-28T02:12:20;102601.59;;;0.98;100.00
60832;BME280;46665;51.558;-0.448;2023-01-28T02:15:13;102611.00;;;1.02;100.00
60832;BME280;46665;51.558;-0.448;2023-01-28T02:17:58;102609.31;;;1.01;100.00
60832;BME280;46665;51.558;-0.448;2023-01-28T02:23:54;102618.84;;;1.03;100.00
60832;BME280;46665;51.558;-0.448;2023-01-28T02:30:14;102613.69;;;1.02;100.00
60832;BME280;46665;51.558;-0.448;2023-01-28T02:33:08;102614.84;;;1.07;100.00
60832;BME280;46665;51.558;-0.448;2023-01-28T02:35:55;102614.34;;;1.12;100.00
60832;BME280;46665;51.558;-0.448;2023-01-28T02:38:43;102614.84;;;1.07;100.00
60832;BME280;46665;51.558;-0.448;2023-01-28T02:41:32;102619.84;;;1.11;100.00
60832;BME280;46665;51.558;-0.448;2023-01-28T02:44:18;102623.53;;;1.18;100.00
60832;BME280;46665;51.558;-0.448;2023-01-28T02:47:08;102614.00;;;1.15;100.00
60832;BME280;46665;51.558;-0.448;2023-01-28T02:50:13;102630.91;;;1.16;100.00
60832;BME280;46665;51.558;-0.448;2023-01-28T03:02:51;102636.78;;;1.19;100.00
60832;BME280;46665;51.558;-0.448;2023-01-28T03:05:50;102632.41;;;1.18;100.00
60832;BME280;46665;51.558;-0.448;2023-01-28T03:08:56;102644.13;;;1.25;100.00
60832;BME280;46665;51.558;-0.448;2023-01-28T03:12:07;102646.66;;;1.27;100.00
60832;BME280;46665;51.558;-0.448;2023-01-28T03:15:18;102641.28;;;1.19;100.00
60832;BME280;46665;51.558;-0.448;2023-01-28T03:18:27;102641.44;;;1.25;100.00
60832;BME280;46665;51.558;-0.448;2023-01-28T03:21:37;102639.13;;;1.22;100.00
60832;BME280;46665;51.558;-0.448;2023-01-28T03:24:49;102648.34;;;1.20;100.00
60832;BME280;46665;51.558;-0.448;2023-01-28T03:28:02;102651.34;;;1.25;100.00
60832;BME280;46665;51.558;-0.448;2023-01-28T03:31:11;102651.50;;;1.32;100.00
60832;BME280;46665;51.558;-0.448;2023-01-28T03:34:14;102658.69;;;1.39;100.00
60832;BME280;46665;51.558;-0.448;2023-01-28T03:37:17;102664.41;;;1.44;100.00
60832;BME280;46665;51.558;-0.448;2023-01-28T03:40:04;102658.84;;;1.46;100.00
60832;BME280;46665;51.558;-0.448;2023-01-28T03:42:48;102653.84;;;1.43;100.00
60832;BME280;46665;51.558;-0.448;2023-01-28T03:45:35;102658.19;;;1.44;100.00
60832;BME280;46665;51.558;-0.448;2023-01-28T03:48:22;102657.03;;;1.38;100.00
60832;BME280;46665;51.558;-0.448;2023-01-28T03:51:06;102665.72;;;1.48;100.00
60832;BME280;46665;51.558;-0.448;2023-01-28T03:53:50;102662.03;;;1.49;100.00
60832;BME280;46665;51.558;-0.448;2023-01-28T03:56:34;102668.25;;;1.50;100.00
60832;BME280;46665;51.558;-0.448;2023-01-28T03:59:23;102669.25;;;1.57;100.00
60832;BME280;46665;51.558;-0.448;2023-01-28T04:02:08;102662.50;;;1.61;100.00
60832;BME280;46665;51.558;-0.448;2023-01-28T04:04:53;102659.66;;;1.63;100.00
60832;BME280;46665;51.558;-0.448;2023-01-28T04:07:37;102671.22;;;1.63;100.00
60832;BME280;46665;51.558;-0.448;2023-01-28T04:10:22;102660.88;;;1.52;100.00
60832;BME280;46665;51.558;-0.448;2023-01-28T04:13:06;102664.69;;;1.58;100.00
60832;BME280;46665;51.558;-0.448;2023-01-28T04:15:50;102655.63;;;1.59;100.00
60832;BME280;46665;51.558;-0.448;2023-01-28T04:18:34;102665.69;;;1.57;100.00
60832;BME280;46665;51.558;-0.448;2023-01-28T04:21:18;102663.69;;;1.59;100.00
60832;BME280;46665;51.558;-0.448;2023-01-28T04:24:03;102662.84;;;1.58;100.00
60832;BME280;46665;51.558;-0.448;2023-01-28T04:26:47;102650.25;;;1.59;100.00
60832;BME280;46665;51.558;-0.448;2023-01-28T04:29:31;102656.66;;;1.58;100.00
60832;BME280;46665;51.558;-0.448;2023-01-28T04:32:15;102658.81;;;1.62;100.00
60832;BME280;46665;51.558;-0.448;2023-01-28T04:35:00;102642.56;;;1.56;100.00
60832;BME280;46665;51.558;-0.448;2023-01-28T04:37:44;102644.41;;;1.55;100.00
60832;BME280;46665;51.558;-0.448;2023-01-28T04:40:28;102641.22;;;1.51;100.00
60832;BME280;46665;51.558;-0.448;2023-01-28T04:43:12;102646.94;;;1.48;100.00
60832;BME280;46665;51.558;-0.448;2023-01-28T04:45:56;102647.13;;;1.47;100.00
60832;BME280;46665;51.558;-0.448;2023-01-28T04:48:40;102641.41;;;1.42;100.00
60832;BME280;46665;51.558;-0.448;2023-01-28T04:51:25;102636.75;;;1.36;100.00
60832;BME280;46665;51.558;-0.448;2023-01-28T04:54:09;102641.28;;;1.35;100.00
60832;BME280;46665;51.558;-0.448;2023-01-28T04:56:53;102645.81;;;1.35;100.00
60832;BME280;46665;51.558;-0.448;2023-01-28T04:59:39;102657.03;;;1.38;100.00
60832;BME280;46665;51.558;-0.448;2023-01-28T05:02:23;102650.00;;;1.37;100.00
60832;BME280;46665;51.558;-0.448;2023-01-28T05:05:07;102649.31;;;1.35;100.00
60832;BME280;46665;51.558;-0.448;2023-01-28T05:07:55;102638.06;;;1.32;100.00
60832;BME280;46665;51.558;-0.448;2023-01-28T05:10:40;102637.59;;;1.28;100.00
60832;BME280;46665;51.558;-0.448;2023-01-28T05:13:24;102628.88;;;1.26;100.00
60832;BME280;46665;51.558;-0.448;2023-01-28T05:16:08;102635.06;;;1.26;100.00
60832;BME280;46665;51.558;-0.448;2023-01-28T05:18:52;102639.44;;;1.27;100.00
60832;BME280;46665;51.558;-0.448;2023-01-28T05:21:36;102638.78;;;1.25;100.00
60832;BME280;46665;51.558;-0.448;2023-01-28T05:24:20;102633.56;;;1.24;100.00
60832;BME280;46665;51.558;-0.448;2023-01-28T05:27:04;102632.38;;;1.26;100.00
60832;BME280;46665;51.558;-0.448;2023-01-28T05:29:50;102632.22;;;1.28;100.00
60832;BME280;46665;51.558;-0.448;2023-01-28T05:32:34;102643.13;;;1.26;100.00
60832;BME280;46665;51.558;-0.448;2023-01-28T05:35:18;102640.63;;;1.25;100.00
60832;BME280;46665;51.558;-0.448;2023-01-28T05:38:02;102627.56;;;1.22;100.00
60832;BME280;46665;51.558;-0.448;2023-01-28T05:40:46;102643.13;;;1.26;100.00
60832;BME280;46665;51.558;-0.448;2023-01-28T05:43:31;102646.66;;;1.27;100.00
60832;BME280;46665;51.558;-0.448;2023-01-28T05:46:15;102646.00;;;1.25;100.00
60832;BME280;46665;51.558;-0.448;2023-01-28T05:48:59;102642.47;;;1.24;100.00
60832;BME280;46665;51.558;-0.448;2023-01-28T05:51:43;102644.97;;;1.26;100.00
60832;BME280;46665;51.558;-0.448;2023-01-28T05:54:27;102650.69;;;1.23;100.00
60832;BME280;46665;51.558;-0.448;2023-01-28T05:57:11;102638.44;;;1.20;100.00
60832;BME280;46665;51.558;-0.448;2023-01-28T05:59:55;102646.66;;;1.27;100.00
60832;BME280;46665;51.558;-0.448;2023-01-28T06:02:40;102647.66;;;1.26;100.00
60832;BME280;46665;51.558;-0.448;2023-01-28T06:05:24;102658.06;;;1.21;100.00
60832;BME280;46665;51.558;-0.448;2023-01-28T06:08:08;102660.06;;;1.19;100.00
60832;BME280;46665;51.558;-0.448;2023-01-28T06:10:53;102664.09;;;1.23;100.00
60832;BME280;46665;51.558;-0.448;2023-01-28T06:13:37;102678.84;;;1.27;100.00
60832;BME280;46665;51.558;-0.448;2023-01-28T06:16:21;102674.13;;;1.29;100.00
60832;BME280;46665;51.558;-0.448;2023-01-28T06:19:05;102658.72;;;1.23;100.00
60832;BME280;46665;51.558;-0.448;2023-01-28T06:21:50;102659.06;;;1.28;100.00
60832;BME280;46665;51.558;-0.448;2023-01-28T06:24:34;102662.44;;;1.22;100.00
60832;BME280;46665;51.558;-0.448;2023-01-28T06:27:18;102658.88;;;1.21;100.00
60832;BME280;46665;51.558;-0.448;2023-01-28T06:30:03;102661.56;;;1.21;100.00
60832;BME280;46665;51.558;-0.448;2023-01-28T06:32:53;102658.88;;;1.21;100.00
60832;BME280;46665;51.558;-0.448;2023-01-28T06:35:37;102665.59;;;1.25;100.00
60832;BME280;46665;51.558;-0.448;2023-01-28T06:38:21;102663.75;;;1.26;100.00
60832;BME280;46665;51.558;-0.448;2023-01-28T06:41:06;102662.75;;;1.27;100.00
60832;BME280;46665;51.558;-0.448;2023-01-28T06:43:49;102658.22;;;1.27;100.00
60832;BME280;46665;51.558;-0.448;2023-01-28T06:46:33;102661.41;;;1.23;100.00
60832;BME280;46665;51.558;-0.448;2023-01-28T06:49:17;102668.28;;;1.25;100.00
60832;BME280;46665;51.558;-0.448;2023-01-28T06:52:02;102661.91;;;1.26;100.00
60832;BME280;46665;51.558;-0.448;2023-01-28T06:54:47;102661.56;;;1.29;100.00
60832;BME280;46665;51.558;-0.448;2023-01-28T06:57:31;102664.75;;;1.33;100.00
60832;BME280;46665;51.558;-0.448;2023-01-28T07:00:16;102665.41;;;1.35;100.00
60832;BME280;46665;51.558;-0.448;2023-01-28T07:03:00;102664.75;;;1.33;100.00
60832;BME280;46665;51.558;-0.448;2023-01-28T07:05:44;102665.91;;;1.30;100.00
60832;BME280;46665;51.558;-0.448;2023-01-28T07:08:28;102666.94;;;1.29;100.00
60832;BME280;46665;51.558;-0.448;2023-01-28T07:11:12;102676.66;;;1.30;100.00
60832;BME280;46665;51.558;-0.448;2023-01-28T07:13:56;102679.34;;;1.30;100.00
60832;BME280;46665;51.558;-0.448;2023-01-28T07:16:40;102686.19;;;1.33;100.00
60832;BME280;46665;51.558;-0.448;2023-01-28T07:19:24;102687.03;;;1.34;100.00
60832;BME280;46665;51.558;-0.448;2023-01-28T07:22:08;102674.63;;;1.33;100.00
60832;BME280;46665;51.558;-0.448;2023-01-28T07:24:52;102688.56;;;1.28;100.00
60832;BME280;46665;51.558;-0.448;2023-01-28T07:27:36;102684.53;;;1.32;100.00
60832;BME280;46665;51.558;-0.448;2023-01-28T07:30:20;102674.44;;;1.34;100.00
60832;BME280;46665;51.558;-0.448;2023-01-28T07:33:05;102677.13;;;1.34;100.00
60832;BME280;46665;51.558;-0.448;2023-01-28T07:35:49;102674.28;;;1.36;100.00
60832;BME280;46665;51.558;-0.448;2023-01-28T07:38:33;102676.66;;;1.30;100.00
60832;BME280;46665;51.558;-0.448;2023-01-28T07:41:17;102683.88;;;1.30;100.00
60832;BME280;46665;51.558;-0.448;2023-01-28T07:44:01;102692.25;;;1.35;100.00
60832;BME280;46665;51.558;-0.448;2023-01-28T07:46:45;102687.38;;;1.30;100.00
60832;BME280;46665;51.558;-0.448;2023-01-28T07:49:30;102672.94;;;1.32;100.00
60832;BME280;46665;51.558;-0.448;2023-01-28T07:52:14;102683.53;;;1.33;100.00
60832;BME280;46665;51.558;-0.448;2023-01-28T07:54:58;102680.00;;;1.33;100.00
60832;BME280;46665;51.558;-0.448;2023-01-28T07:57:56;102682.16;;;1.29;100.00
60832;BME280;46665;51.558;-0.448;2023-01-28T08:00:41;102685.03;;;1.36;100.00
60832;BME280;46665;51.558;-0.448;2023-01-28T08:03:25;102689.56;;;1.35;100.00
60832;BME280;46665;51.558;-0.448;2023-01-28T08:06:10;102673.63;;;1.34;100.00
60832;BME280;46665;51.558;-0.448;2023-01-28T08:08:54;102673.13;;;1.38;100.00
60832;BME280;46665;51.558;-0.448;2023-01-28T08:11:39;102679.00;;;1.34;100.00
60832;BME280;46665;51.558;-0.448;2023-01-28T08:14:23;102676.31;;;1.34;100.00
60832;BME280;46665;51.558;-0.448;2023-01-28T08:17:07;102680.50;;;1.36;100.00
60832;BME280;46665;51.558;-0.448;2023-01-28T08:19:51;102679.81;;;1.42;100.00
60832;BME280;46665;51.558;-0.448;2023-01-28T08:22:35;102673.59;;;1.42;100.00
60832;BME280;46665;51.558;-0.448;2023-01-28T08:25:19;102686.19;;;1.41;100.00
60832;BME280;46665;51.558;-0.448;2023-01-28T08:28:04;102678.47;;;1.46;100.00
60832;BME280;46665;51.558;-0.448;2023-01-28T08:30:48;102676.78;;;1.54;100.00
60832;BME280;46665;51.558;-0.448;2023-01-28T08:33:33;102674.59;;;1.57;100.00
60832;BME280;46665;51.558;-0.448;2023-01-28T08:36:17;102675.56;;;1.64;100.00
60832;BME280;46665;51.558;-0.448;2023-01-28T08:39:01;102670.03;;;1.66;100.00
60832;BME280;46665;51.558;-0.448;2023-01-28T08:41:45;102675.56;;;1.64;100.00
60832;BME280;46665;51.558;-0.448;2023-01-28T08:44:29;102677.94;;;1.67;100.00
60832;BME280;46665;51.558;-0.448;2023-01-28T08:47:13;102678.41;;;1.71;100.00
60832;BME280;46665;51.558;-0.448;2023-01-28T08:49:57;102675.22;;;1.76;100.00
60832;BME280;46665;51.558;-0.448;2023-01-28T08:52:41;102698.00;;;1.80;100.00
60832;BME280;46665;51.558;-0.448;2023-01-28T08:55:27;102698.50;;;1.83;100.00
60832;BME280;46665;51.558;-0.448;2023-01-28T08:58:14;102701.31;;;1.90;100.00
60832;BME280;46665;51.558;-0.448;2023-01-28T09:01:04;102691.09;;;1.93;100.00
60832;BME280;46665;51.558;-0.448;2023-01-28T09:03:52;102699.31;;;2.00;100.00
60832;BME280;46665;51.558;-0.448;2023-01-28T09:06:36;102696.94;;;2.05;100.00
60832;BME280;46665;51.558;-0.448;2023-01-28T09:09:20;102698.75;;;2.05;100.00
60832;BME280;46665;51.558;-0.448;2023-01-28T09:12:04;102709.16;;;2.08;100.00
60832;BME280;46665;51.558;-0.448;2023-01-28T09:14:48;102704.13;;;2.13;100.00
60832;BME280;46665;51.558;-0.448;2023-01-28T09:17:33;102705.25;;;2.19;100.00
60832;BME280;46665;51.558;-0.448;2023-01-28T09:20:16;102713.28;;;2.27;100.00
60832;BME280;46665;51.558;-0.448;2023-01-28T09:23:01;102724.16;;;2.33;100.00
60832;BME280;46665;51.558;-0.448;2023-01-28T09:25:45;102722.97;;;2.36;100.00
60832;BME280;46665;51.558;-0.448;2023-01-28T09:28:30;102728.81;;;2.39;100.00
60832;BME280;46665;51.558;-0.448;2023-01-28T09:31:14;102722.25;;;2.42;100.00
60832;BME280;46665;51.558;-0.448;2023-01-28T09:33:58;102736.66;;;2.49;100.00
60832;BME280;46665;51.558;-0.448;2023-01-28T09:36:42;102730.94;;;2.52;100.00
60832;BME280;46665;51.558;-0.448;2023-01-28T09:39:26;102731.25;;;2.57;100.00
60832;BME280;46665;51.558;-0.448;2023-01-28T09:42:50;102735.44;;;2.60;100.00
60832;BME280;46665;51.558;-0.448;2023-01-28T09:45:45;102736.09;;;2.62;100.00
60832;BME280;46665;51.558;-0.448;2023-01-28T09:48:45;102733.03;;;2.65;100.00
60832;BME280;46665;51.558;-0.448;2023-01-28T09:51:35;102716.25;;;2.63;100.00
60832;BME280;46665;51.558;-0.448;2023-01-28T09:54:40;102728.19;;;2.69;100.00
60832;BME280;46665;51.558;-0.448;2023-01-28T09:57:50;102729.66;;;2.71;100.00
60832;BME280;46665;51.558;-0.448;2023-01-28T10:00:37;102725.78;;;2.74;100.00
60832;BME280;46665;51.558;-0.448;2023-01-28T10:03:34;102739.53;;;2.79;100.00
60832;BME280;46665;51.558;-0.448;2023-01-28T10:06:27;102743.53;;;2.83;100.00
60832;BME280;46665;51.558;-0.448;2023-01-28T10:15:34;102728.28;;;2.98;100.00
60832;BME280;46665;51.558;-0.448;2023-01-28T10:18:29;102715.50;;;3.00;100.00
60832;BME280;46665;51.558;-0.448;2023-01-28T10:24:16;102722.97;;;3.13;100.00
60832;BME280;46665;51.558;-0.448;2023-01-28T10:27:13;102719.38;;;3.21;100.00
60832;BME280;46665;51.558;-0.448;2023-01-28T10:29:59;102722.56;;;3.24;100.00
60832;BME280;46665;51.558;-0.448;2023-01-28T10:33:03;102723.00;;;3.28;100.00
60832;BME280;46665;51.558;-0.448;2023-01-28T10:35:49;102718.56;;;3.35;100.00
60832;BME280;46665;51.558;-0.448;2023-01-28T10:38:34;102708.28;;;3.39;100.00
60832;BME280;46665;51.558;-0.448;2023-01-28T10:41:20;102700.16;;;3.47;100.00
60832;BME280;46665;51.558;-0.448;2023-01-28T10:44:07;102698.44;;;3.46;99.69
60832;BME280;46665;51.558;-0.448;2023-01-28T10:46:56;102705.59;;;3.54;100.00
60832;BME280;46665;51.558;-0.448;2023-01-28T10:49:49;102689.56;;;3.60;100.00
60832;BME280;46665;51.558;-0.448;2023-01-28T10:52:35;102669.97;;;3.66;100.00
60832;BME280;46665;51.558;-0.448;2023-01-28T10:55:20;102673.16;;;3.70;99.48
60832;BME280;46665;51.558;-0.448;2023-01-28T10:58:04;102661.63;;;3.76;100.00
60832;BME280;46665;51.558;-0.448;2023-01-28T11:00:59;102666.06;;;3.84;100.00
60832;BME280;46665;51.558;-0.448;2023-01-28T11:03:56;102657.25;;;3.90;99.58
60832;BME280;46665;51.558;-0.448;2023-01-28T11:06:41;102648.53;;;3.88;95.05
60832;BME280;46665;51.558;-0.448;2023-01-28T11:09:36;102638.84;;;3.94;96.15
60832;BME280;46665;51.558;-0.448;2023-01-28T11:12:22;102637.66;;;3.96;94.29
60832;BME280;46665;51.558;-0.448;2023-01-28T11:15:16;102637.91;;;4.01;94.95
60832;BME280;46665;51.558;-0.448;2023-01-28T11:18:07;102637.53;;;4.04;93.59
60832;BME280;46665;51.558;-0.448;2023-01-28T11:21:23;102640.50;;;4.09;93.58
60832;BME280;46665;51.558;-0.448;2023-01-28T11:24:15;102641.78;;;4.13;94.63
60832;BME280;46665;51.558;-0.448;2023-01-28T11:27:14;102644.75;;;4.19;95.61
60832;BME280;46665;51.558;-0.448;2023-01-28T11:30:00;102634.03;;;4.25;95.55
60832;BME280;46665;51.558;-0.448;2023-01-28T11:36:07;102639.91;;;4.29;93.29
60832;BME280;46665;51.558;-0.448;2023-01-28T11:38:58;102629.41;;;4.19;93.99
60832;BME280;46665;51.558;-0.448;2023-01-28T11:41:43;102634.31;;;4.30;94.86
60832;BME280;46665;51.558;-0.448;2023-01-28T11:44:27;102615.94;;;4.19;92.87
60832;BME280;46665;51.558;-0.448;2023-01-28T11:59:16;102655.00;;;4.45;92.53
60832;BME280;46665;51.558;-0.448;2023-01-28T12:02:36;102655.38;;;4.42;89.20
60832;BME280;46665;51.558;-0.448;2023-01-28T12:08:25;102651.84;;;4.41;89.32
60832;BME280;46665;51.558;-0.448;2023-01-28T12:11:31;102658.34;;;4.47;90.66
60832;BME280;46665;51.558;-0.448;2023-01-28T12:20:49;102665.59;;;4.46;89.87
60832;BME280;46665;51.558;-0.448;2023-01-28T12:27:17;102650.25;;;4.47;90.45
60832;BME280;46665;51.558;-0.448;2023-01-28T12:45:14;102640.75;;;4.72;89.99
60832;BME280;46665;51.558;-0.448;2023-01-28T12:48:26;102647.88;;;4.80;90.85
60832;BME280;46665;51.558;-0.448;2023-01-28T12:57:32;102629.09;;;4.93;89.18
60832;BME280;46665;51.558;-0.448;2023-01-28T13:00:31;102615.03;;;4.98;89.21
60832;BME280;46665;51.558;-0.448;2023-01-28T13:03:25;102613.38;;;4.97;87.12
60832;BME280;46665;51.558;-0.448;2023-01-28T13:09:12;102612.56;;;5.03;88.61
60832;BME280;46665;51.558;-0.448;2023-01-28T13:11:58;102596.84;;;5.07;87.55
60832;BME280;46665;51.558;-0.448;2023-01-28T13:14:44;102591.28;;;5.15;86.83
60832;BME280;46665;51.558;-0.448;2023-01-28T13:17:30;102594.41;;;5.12;85.91
60832;BME280;46665;51.558;-0.448;2023-01-28T13:20:16;102593.09;;;5.08;86.61
60832;BME280;46665;51.558;-0.448;2023-01-28T13:23:03;102595.63;;;5.09;87.56
60832;BME280;46665;51.558;-0.448;2023-01-28T13:25:48;102599.16;;;5.10;86.74
60832;BME280;46665;51.558;-0.448;2023-01-28T13:28:33;102590.34;;;5.01;87.00
60832;BME280;46665;51.558;-0.448;2023-01-28T13:31:20;102597.84;;;5.06;87.46
60832;BME280;46665;51.558;-0.448;2023-01-28T13:34:05;102589.34;;;5.02;86.87
60832;BME280;46665;51.558;-0.448;2023-01-28T13:36:49;102586.44;;;5.04;87.22
60832;BME280;46665;51.558;-0.448;2023-01-28T13:39:35;102582.50;;;5.06;88.53
60832;BME280;46665;51.558;-0.448;2023-01-28T13:48:21;102579.84;;;5.13;88.13
60832;BME280;46665;51.558;-0.448;2023-01-28T13:51:17;102591.28;;;5.15;89.26
60832;BME280;46665;51.558;-0.448;2023-01-28T13:54:15;102585.91;;;5.15;87.99
60832;BME280;46665;51.558;-0.448;2023-01-28T13:59:57;102578.97;;;5.06;86.89
60832;BME280;46665;51.558;-0.448;2023-01-28T14:18:42;102562.19;;;5.10;86.21
60832;BME280;46665;51.558;-0.448;2023-01-28T14:21:31;102562.00;;;5.12;86.89
60832;BME280;46665;51.558;-0.448;2023-01-28T14:24:17;102565.31;;;5.14;86.11
60832;BME280;46665;51.558;-0.448;2023-01-28T14:30:21;102557.22;;;5.14;86.99
60832;BME280;46665;51.558;-0.448;2023-01-28T14:33:11;102573.66;;;5.19;86.52
60832;BME280;46665;51.558;-0.448;2023-01-28T14:35:56;102565.19;;;5.22;87.68
60832;BME280;46665;51.558;-0.448;2023-01-28T14:38:42;102573.47;;;5.20;86.39
60832;BME280;46665;51.558;-0.448;2023-01-28T14:41:27;102568.25;;;5.19;86.79
60832;BME280;46665;51.558;-0.448;2023-01-28T14:44:39;102584.72;;;5.24;86.45
60832;BME280;46665;51.558;-0.448;2023-01-28T14:47:30;102583.63;;;5.18;85.98
60832;BME280;46665;51.558;-0.448;2023-01-28T14:53:17;102592.38;;;5.20;86.71
60832;BME280;46665;51.558;-0.448;2023-01-28T14:56:26;102600.22;;;5.15;86.26
60832;BME280;46665;51.558;-0.448;2023-01-28T14:59:22;102602.50;;;5.12;86.19
60832;BME280;46665;51.558;-0.448;2023-01-28T15:02:17;102602.81;;;5.02;87.18
60832;BME280;46665;51.558;-0.448;2023-01-28T15:05:14;102612.81;;;5.08;87.24
60832;BME280;46665;51.558;-0.448;2023-01-28T15:07:58;102610.72;;;5.04;87.68
60832;BME280;46665;51.558;-0.448;2023-01-28T15:10:43;102623.84;;;5.07;88.48
60832;BME280;46665;51.558;-0.448;2023-01-28T15:13:29;102624.66;;;5.07;89.35
60832;BME280;46665;51.558;-0.448;2023-01-28T15:16:21;102614.69;;;5.08;89.11
60832;BME280;46665;51.558;-0.448;2023-01-28T15:19:07;102611.59;;;5.11;90.71
60832;BME280;46665;51.558;-0.448;2023-01-28T15:21:54;102612.41;;;5.11;91.00
60832;BME280;46665;51.558;-0.448;2023-01-28T15:24:39;102614.94;;;5.13;89.84
60832;BME280;46665;51.558;-0.448;2023-01-28T15:27:28;102624.06;;;5.12;89.98
60832;BME280;46665;51.558;-0.448;2023-01-28T15:30:24;102612.81;;;5.08;90.12
60832;BME280;46665;51.558;-0.448;2023-01-28T15:33:14;102601.84;;;5.10;90.27
60832;BME280;46665;51.558;-0.448;2023-01-28T15:36:00;102599.16;;;5.10;90.00
60832;BME280;46665;51.558;-0.448;2023-01-28T15:38:44;102595.81;;;5.08;91.66
60832;BME280;46665;51.558;-0.448;2023-01-28T15:41:32;102592.28;;;5.07;90.42
60832;BME280;46665;51.558;-0.448;2023-01-28T15:44:36;102592.69;;;5.04;92.08
60832;BME280;46665;51.558;-0.448;2023-01-28T15:47:27;102586.25;;;5.05;92.04
60832;BME280;46665;51.558;-0.448;2023-01-28T15:50:21;102587.06;;;5.06;91.90
60832;BME280;46665;51.558;-0.448;2023-01-28T15:53:07;102577.97;;;5.07;91.82
60832;BME280;46665;51.558;-0.448;2023-01-28T15:56:03;102577.09;;;5.06;91.15
60832;BME280;46665;51.558;-0.448;2023-01-28T15:58:47;102577.31;;;5.05;92.80
60832;BME280;46665;51.558;-0.448;2023-01-28T16:01:31;102581.66;;;5.06;93.69
60832;BME280;46665;51.558;-0.448;2023-01-28T16:04:27;102581.88;;;5.04;94.57
60832;BME280;46665;51.558;-0.448;2023-01-28T16:07:12;102575.03;;;5.02;93.34
60832;BME280;46665;51.558;-0.448;2023-01-28T16:09:59;102586.19;;;4.98;95.38
60832;BME280;46665;51.558;-0.448;2023-01-28T16:12:54;102569.38;;;4.96;95.25
60832;BME280;46665;51.558;-0.448;2023-01-28T16:18:48;102578.47;;;4.95;96.30
60832;BME280;46665;51.558;-0.448;2023-01-28T16:21:37;102578.69;;;4.94;95.59
60832;BME280;46665;51.558;-0.448;2023-01-28T16:24:30;102590.72;;;4.91;96.33
60832;BME280;46665;51.558;-0.448;2023-01-28T16:27:31;102582.41;;;4.93;97.22